createdAt,value
2018-05-06T00:01:47.521Z,39.70
2018-05-06T00:07:06.682Z,40.01
2018-05-06T00:09:38.480Z,39.89
2018-05-06T00:12:12.088Z,39.65
2018-05-06T00:14:46.425Z,39.50
2018-05-06T00:17:17.768Z,39.67
2018-05-06T00:19:48.972Z,40.08
2018-05-06T00:22:19.456Z,39.96
2018-05-06T00:25:00.918Z,39.91
2018-05-06T00:27:34.945Z,39.92
2018-05-06T00:30:15.122Z,39.94
2018-05-06T00:32:45.891Z,40.10
2018-05-06T00:35:16.991Z,39.99
2018-05-06T00:37:47.830Z,39.91
2018-05-06T00:40:21.287Z,40.29
2018-05-06T00:42:53.162Z,40.23
2018-05-06T00:45:24.499Z,40.45
2018-05-06T00:47:55.568Z,40.42
2018-05-06T00:50:26.102Z,40.52
2018-05-06T00:52:57.840Z,40.26
2018-05-06T00:55:28.061Z,40.45
2018-05-06T00:57:58.736Z,40.22
2018-05-06T01:00:29.386Z,40.18
2018-05-06T01:03:00.410Z,40.25
2018-05-06T01:05:31.137Z,40.39
2018-05-06T01:08:02.597Z,40.66
2018-05-06T01:13:11.913Z,41.04
2018-05-06T01:15:42.395Z,41.13
2018-05-06T01:18:13.575Z,41.44
2018-05-06T01:20:43.827Z,41.65
2018-05-06T01:23:15.233Z,41.59
2018-05-06T01:25:47.082Z,41.52
2018-05-06T01:28:17.813Z,41.39
2018-05-06T01:30:48.862Z,41.46
2018-05-06T01:33:19.388Z,41.89
2018-05-06T01:35:49.972Z,42.12
2018-05-06T01:38:20.576Z,42.02
2018-05-06T01:40:54.827Z,41.83
2018-05-06T01:43:25.231Z,41.85
2018-05-06T01:45:56.058Z,41.89
2018-05-06T01:48:26.236Z,42.09
2018-05-06T01:50:56.664Z,41.92
2018-05-06T01:53:27.765Z,42.10
2018-05-06T01:55:58.856Z,42.08
2018-05-06T01:58:29.513Z,42.09
2018-05-06T02:01:00.547Z,42.37
2018-05-06T02:03:31.382Z,42.39
2018-05-06T02:06:02.119Z,42.48
2018-05-06T02:08:32.767Z,42.63
2018-05-06T02:11:03.152Z,42.77
2018-05-06T02:13:33.715Z,42.83
2018-05-06T02:16:04.741Z,43.07
2018-05-06T02:18:35.203Z,42.92
2018-05-06T02:21:06.862Z,43.04
2018-05-06T02:23:37.954Z,43.07
2018-05-06T02:26:08.925Z,43.35
2018-05-06T02:28:39.269Z,43.53
2018-05-06T02:31:09.789Z,43.26
2018-05-06T02:33:40.191Z,43.22
2018-05-06T02:36:10.575Z,43.29
2018-05-06T02:38:41.044Z,43.42
2018-05-06T02:41:12.087Z,43.67
2018-05-06T02:43:42.685Z,43.96
2018-05-06T02:46:13.281Z,43.88
2018-05-06T02:48:44.341Z,44.10
2018-05-06T02:51:14.929Z,44.58
2018-05-06T02:53:45.563Z,44.66
2018-05-06T02:56:16.439Z,44.59
2018-05-06T02:58:46.649Z,44.64
2018-05-06T03:01:17.192Z,44.71
2018-05-06T03:03:48.534Z,45.12
2018-05-06T03:06:18.943Z,44.60
2018-05-06T03:08:50.005Z,44.78
2018-05-06T03:11:25.174Z,44.65
2018-05-06T03:13:55.758Z,45.10
2018-05-06T03:16:37.261Z,45.05
2018-05-06T03:19:11.153Z,45.24
2018-05-06T03:21:48.839Z,45.42
2018-05-06T03:24:20.579Z,45.60
2018-05-06T03:26:51.124Z,45.33
2018-05-06T03:29:29.414Z,45.03
2018-05-06T03:32:00.371Z,45.24
2018-05-06T03:34:30.683Z,45.47
2018-05-06T03:37:00.980Z,45.27
2018-05-06T03:39:31.553Z,45.40
2018-05-06T03:42:01.646Z,45.46
2018-05-06T03:44:40.628Z,45.67
2018-05-06T03:47:14.229Z,46.06
2018-05-06T03:49:44.512Z,46.06
2018-05-06T03:52:14.813Z,45.93
2018-05-06T03:54:46.488Z,46.23
2018-05-06T03:59:30.471Z,46.35
2018-05-06T04:02:01.386Z,47.13
2018-05-06T04:04:32.256Z,47.37
2018-05-06T04:07:02.672Z,47.39
2018-05-06T04:09:33.273Z,47.29
2018-05-06T04:12:04.186Z,47.21
2018-05-06T04:14:35.051Z,47.28
2018-05-06T04:17:06.288Z,47.48
2018-05-06T04:19:37.058Z,47.86
2018-05-06T04:22:07.787Z,47.84
2018-05-06T04:24:38.334Z,47.50
2018-05-06T04:27:09.367Z,47.09
2018-05-06T04:29:39.763Z,47.30
2018-05-06T04:32:11.661Z,47.61
2018-05-06T04:34:42.435Z,47.85
2018-05-06T04:37:13.223Z,48.22
2018-05-06T04:39:44.430Z,48.37
2018-05-06T04:42:14.641Z,47.99
2018-05-06T04:44:45.084Z,47.76
2018-05-06T04:47:22.256Z,47.32
2018-05-06T04:49:52.603Z,46.98
2018-05-06T04:52:30.680Z,46.60
2018-05-06T04:55:01.465Z,46.04
2018-05-06T04:57:32.106Z,45.61
2018-05-06T05:00:05.213Z,45.36
2018-05-06T05:02:36.230Z,44.88
2018-05-06T05:05:06.670Z,44.27
2018-05-06T05:07:37.464Z,43.48
2018-05-06T05:10:12.403Z,43.51
2018-05-06T05:12:43.502Z,43.08
2018-05-06T05:15:50.560Z,42.85
2018-05-06T05:18:45.797Z,42.57
2018-05-06T05:21:17.344Z,42.15
2018-05-06T05:23:47.893Z,42.32
2018-05-06T05:26:18.418Z,41.74
2018-05-06T05:28:48.921Z,41.23
2018-05-06T05:31:19.718Z,40.66
2018-05-06T05:33:50.154Z,40.32
2018-05-06T05:36:20.677Z,39.41
2018-05-06T05:38:51.525Z,38.92
2018-05-06T05:41:22.132Z,38.21
2018-05-06T05:43:53.306Z,37.57
2018-05-06T05:46:30.124Z,36.85
2018-05-06T05:49:02.278Z,36.13
2018-05-06T05:51:35.043Z,35.90
2018-05-06T05:54:06.101Z,35.56
2018-05-06T05:56:39.834Z,35.04
2018-05-06T05:59:11.335Z,34.39
2018-05-06T06:01:43.432Z,34.27
2018-05-06T06:04:13.654Z,33.48
2018-05-06T06:06:43.917Z,33.27
2018-05-06T06:09:17.170Z,32.65
2018-05-06T06:11:47.865Z,31.84
2018-05-06T06:14:19.635Z,31.70
2018-05-06T06:17:31.226Z,30.98
2018-05-06T06:20:02.926Z,30.97
2018-05-06T06:22:34.620Z,30.77
2018-05-06T06:25:04.919Z,29.99
2018-05-06T06:27:39.683Z,29.99
2018-05-06T06:30:13.664Z,29.32
2018-05-06T06:32:44.942Z,28.54
2018-05-06T06:35:15.911Z,27.96
2018-05-06T06:37:46.686Z,27.58
2018-05-06T06:40:17.410Z,26.81
2018-05-06T06:42:50.116Z,27.17
2018-05-06T06:45:21.444Z,26.32
2018-05-06T06:47:53.485Z,26.08
2018-05-06T06:50:23.684Z,25.31
2018-05-06T06:52:54.426Z,25.90
2018-05-06T06:55:24.791Z,25.54
2018-05-06T06:57:58.702Z,25.38
2018-05-06T07:00:31.215Z,25.45
2018-05-06T07:03:04.581Z,24.95
2018-05-06T07:05:36.298Z,24.79
2018-05-06T07:08:06.831Z,24.62
2018-05-06T07:10:37.503Z,24.55
2018-05-06T07:13:08.735Z,23.90
2018-05-06T07:15:39.721Z,23.76
2018-05-06T07:18:19.183Z,24.22
2018-05-06T07:20:50.368Z,23.38
2018-05-06T07:23:20.920Z,22.97
2018-05-06T07:25:51.260Z,23.07
2018-05-06T07:28:21.793Z,23.72
2018-05-06T07:30:53.081Z,23.54
2018-05-06T07:33:23.298Z,23.95
2018-05-06T07:35:53.688Z,23.80
2018-05-06T07:38:24.317Z,23.94
2018-05-06T07:40:55.462Z,24.02
2018-05-06T07:43:25.888Z,23.24
2018-05-06T07:45:57.946Z,22.91
2018-05-06T07:48:28.317Z,22.83
2018-05-06T07:51:00.615Z,22.96
2018-05-06T07:53:32.046Z,22.59
2018-05-06T07:56:02.730Z,22.16
2018-05-06T07:58:33.861Z,21.90
2018-05-06T08:01:04.396Z,21.57
2018-05-06T08:03:34.813Z,21.67
2018-05-06T08:06:08.512Z,20.68
2018-05-06T08:08:49.997Z,21.04
2018-05-06T08:14:12.393Z,20.93
2018-05-06T08:16:45.222Z,20.32
2018-05-06T08:19:15.649Z,20.22
2018-05-06T08:21:46.307Z,20.03
2018-05-06T08:24:17.217Z,20.24
2018-05-06T08:26:48.397Z,19.69
2018-05-06T08:29:19.001Z,19.33
2018-05-06T08:31:50.501Z,20.33
2018-05-06T08:34:21.022Z,20.16
2018-05-06T08:36:52.243Z,20.04
2018-05-06T08:39:22.725Z,20.16
2018-05-06T08:41:53.153Z,20.12
2018-05-06T08:44:28.140Z,19.89
2018-05-06T08:47:01.686Z,19.34
2018-05-06T08:49:33.426Z,19.27
2018-05-06T08:52:05.971Z,19.70
2018-05-06T08:57:13.969Z,19.44
2018-05-06T08:59:45.210Z,19.15
2018-05-06T09:02:15.745Z,19.52
2018-05-06T09:05:32.395Z,19.13
2018-05-06T09:08:08.663Z,18.87
2018-05-06T09:13:38.252Z,19.27
2018-05-06T09:16:10.234Z,19.61
2018-05-06T09:18:40.749Z,19.39
2018-05-06T09:21:12.889Z,19.52
2018-05-06T09:23:46.286Z,19.55
2018-05-06T09:26:20.059Z,19.34
2018-05-06T09:28:57.235Z,19.84
2018-05-06T09:31:31.568Z,19.15
2018-05-06T09:34:02.542Z,19.09
2018-05-06T09:36:34.869Z,19.32
2018-05-06T09:39:07.870Z,19.39
2018-05-06T09:41:40.652Z,19.47
2018-05-06T09:44:12.461Z,18.82
2018-05-06T09:46:53.188Z,18.69
2018-05-06T09:49:30.752Z,18.52
2018-05-06T09:52:09.284Z,18.40
2018-05-06T09:54:54.847Z,18.41
2018-05-06T09:57:26.471Z,18.91
2018-05-06T09:59:57.207Z,19.08
2018-05-06T10:02:27.598Z,19.03
2018-05-06T10:04:59.579Z,18.64
2018-05-06T10:07:30.595Z,17.90
2018-05-06T10:10:04.190Z,18.19
2018-05-06T10:12:37.744Z,17.71
2018-05-06T10:15:09.472Z,17.75
2018-05-06T10:17:42.905Z,17.33
2018-05-06T10:20:14.782Z,16.58
2018-05-06T10:22:45.464Z,16.70
2018-05-06T10:25:15.718Z,16.56
2018-05-06T10:30:46.138Z,16.04
2018-05-06T10:35:56.441Z,15.71
2018-05-06T10:38:27.556Z,15.57
2018-05-06T10:40:58.277Z,15.00
2018-05-06T10:43:31.522Z,14.96
2018-05-06T10:46:07.781Z,14.47
2018-05-06T10:48:39.562Z,14.21
2018-05-06T10:51:12.520Z,14.63
2018-05-06T10:53:43.930Z,13.30
2018-05-06T10:56:14.921Z,13.16
2018-05-06T11:01:23.395Z,12.60
2018-05-06T11:03:54.622Z,12.58
2018-05-06T11:06:25.423Z,12.54
2018-05-06T11:08:56.740Z,11.88
2018-05-06T11:11:27.032Z,12.06
2018-05-06T11:13:57.536Z,12.33
2018-05-06T11:16:28.760Z,11.60
2018-05-06T11:18:59.741Z,12.15
2018-05-06T11:21:32.238Z,12.08
2018-05-06T11:24:04.459Z,11.61
2018-05-06T11:26:35.184Z,11.89
2018-05-06T11:29:06.498Z,12.21
2018-05-06T11:31:37.537Z,12.05
2018-05-06T11:34:08.431Z,11.79
2018-05-06T11:36:42.149Z,12.23
2018-05-06T11:39:12.478Z,11.83
2018-05-06T11:41:42.960Z,12.13
2018-05-06T11:44:13.604Z,12.01
2018-05-06T11:46:45.810Z,11.78
2018-05-06T11:49:16.586Z,11.35
2018-05-06T11:51:47.326Z,11.94
2018-05-06T11:54:17.928Z,11.60
2018-05-06T11:56:48.432Z,10.63
2018-05-06T11:59:18.692Z,10.76
2018-05-06T12:01:49.974Z,10.93
2018-05-06T12:04:20.601Z,11.03
2018-05-06T12:06:51.137Z,10.66
2018-05-06T12:09:21.711Z,11.17
2018-05-06T12:12:06.552Z,10.81
2018-05-06T12:14:37.103Z,10.68
2018-05-06T12:17:13.615Z,10.74
2018-05-06T12:19:44.573Z,10.64
2018-05-06T12:22:18.699Z,10.90
2018-05-06T12:24:49.532Z,11.02
2018-05-06T12:27:19.795Z,11.03
2018-05-06T12:29:50.388Z,11.33
2018-05-06T12:32:21.161Z,11.68
2018-05-06T12:34:52.304Z,11.97
2018-05-06T12:37:23.907Z,12.17
2018-05-06T12:39:56.326Z,11.87
2018-05-06T12:42:32.000Z,11.72
2018-05-06T12:45:06.510Z,11.35
2018-05-06T12:47:38.155Z,11.32
2018-05-06T12:50:10.239Z,11.55
2018-05-06T12:52:44.734Z,11.19
2018-05-06T12:55:15.264Z,12.43
2018-05-06T12:57:45.703Z,13.33
2018-05-06T13:00:23.243Z,13.45
2018-05-06T13:02:55.502Z,14.06
2018-05-06T13:05:25.825Z,14.56
2018-05-06T13:07:56.477Z,15.42
2018-05-06T13:10:46.862Z,15.89
2018-05-06T13:13:21.236Z,16.10
2018-05-06T13:15:52.845Z,16.37
2018-05-06T13:18:23.433Z,16.78
2018-05-06T13:20:54.045Z,16.75
2018-05-06T13:23:25.606Z,16.92
2018-05-06T13:26:13.685Z,17.01
2018-05-06T13:28:45.451Z,16.92
2018-05-06T13:31:23.854Z,16.72
2018-05-06T13:33:55.532Z,16.66
2018-05-06T13:36:27.175Z,16.47
2018-05-06T13:38:57.728Z,16.57
2018-05-06T13:41:28.612Z,17.19
2018-05-06T13:43:59.657Z,17.41
2018-05-06T13:49:37.867Z,17.00
2018-05-06T13:52:18.477Z,16.92
2018-05-06T13:54:49.680Z,17.44
2018-05-06T13:57:20.967Z,17.54
2018-05-06T13:59:51.658Z,17.56
2018-05-06T14:02:22.809Z,17.34
2018-05-06T14:04:54.314Z,17.63
2018-05-06T14:07:26.045Z,17.47
2018-05-06T14:09:59.824Z,17.73
2018-05-06T14:12:30.112Z,17.92
2018-05-06T14:15:04.130Z,17.79
2018-05-06T14:17:34.701Z,17.54
2018-05-06T14:20:06.873Z,17.51
2018-05-06T14:22:45.811Z,17.71
2018-05-06T14:25:33.518Z,17.77
2018-05-06T14:30:49.672Z,18.08
2018-05-06T14:33:20.892Z,18.56
2018-05-06T14:35:51.601Z,18.52
2018-05-06T14:38:22.133Z,18.47
2018-05-06T14:40:53.079Z,18.37
2018-05-06T14:43:23.357Z,19.14
2018-05-06T14:45:53.968Z,19.19
2018-05-06T14:48:26.796Z,19.47
2018-05-06T14:50:58.651Z,19.88
2018-05-06T14:53:34.037Z,19.63
2018-05-06T14:56:05.215Z,19.50
2018-05-06T14:58:37.641Z,19.31
2018-05-06T15:01:10.097Z,19.96
2018-05-06T15:03:40.762Z,20.04
2018-05-06T15:06:25.159Z,20.31
2018-05-06T15:11:51.085Z,19.99
2018-05-06T15:14:31.807Z,20.56
2018-05-06T15:17:10.232Z,20.90
2018-05-06T15:19:41.974Z,21.35
2018-05-06T15:22:25.137Z,21.23
2018-05-06T15:24:56.159Z,20.93
2018-05-06T15:27:26.768Z,21.17
2018-05-06T15:29:57.215Z,21.66
2018-05-06T15:32:27.856Z,21.94
2018-05-06T15:34:59.895Z,21.95
2018-05-06T15:37:30.348Z,22.01
2018-05-06T15:40:02.684Z,22.39
2018-05-06T15:42:36.406Z,22.25
2018-05-06T15:45:08.096Z,22.57
2018-05-06T15:47:39.172Z,22.42
2018-05-06T15:50:09.977Z,22.74
2018-05-06T15:52:41.070Z,22.80
2018-05-06T15:55:21.102Z,22.64
2018-05-06T15:58:03.719Z,22.98
2018-05-06T16:00:41.221Z,23.36
2018-05-06T16:04:16.378Z,23.58
2018-05-06T16:06:48.131Z,24.04
2018-05-06T16:09:18.776Z,24.00
2018-05-06T16:11:50.574Z,23.96
2018-05-06T16:14:26.239Z,23.84
2018-05-06T16:16:58.693Z,24.16
2018-05-06T16:22:09.502Z,24.18
2018-05-06T16:24:39.870Z,24.33
2018-05-06T16:27:11.166Z,24.34
2018-05-06T16:29:42.806Z,24.50
2018-05-06T16:32:13.167Z,24.79
2018-05-06T16:34:48.316Z,25.19
2018-05-06T16:37:18.693Z,25.26
2018-05-06T16:39:52.198Z,25.12
2018-05-06T16:42:25.194Z,24.86
2018-05-06T16:44:59.074Z,24.79
2018-05-06T16:47:34.155Z,24.83
2018-05-06T16:50:06.237Z,24.87
2018-05-06T16:52:37.253Z,24.94
2018-05-06T16:58:12.307Z,25.12
2018-05-06T17:00:43.447Z,25.34
2018-05-06T17:03:16.191Z,25.42
2018-05-06T17:05:49.392Z,25.55
2018-05-06T17:08:25.341Z,25.75
2018-05-06T17:11:04.008Z,25.75
2018-05-06T17:13:35.488Z,25.94
2018-05-06T17:16:06.433Z,26.05
2018-05-06T17:18:37.473Z,26.22
2018-05-06T17:21:09.574Z,26.12
2018-05-06T17:23:40.815Z,26.33
2018-05-06T17:26:12.690Z,26.22
2018-05-06T17:28:44.820Z,26.58
2018-05-06T17:31:16.442Z,26.57
2018-05-06T17:33:47.853Z,26.72
2018-05-06T17:36:23.522Z,27.07
2018-05-06T17:39:00.100Z,27.12
2018-05-06T17:41:32.938Z,27.26
2018-05-06T17:44:10.833Z,27.17
2018-05-06T17:46:42.746Z,27.57
2018-05-06T17:49:19.332Z,27.79
2018-05-06T17:51:52.433Z,27.92
2018-05-06T17:54:35.031Z,28.15
2018-05-06T17:57:11.182Z,28.33
2018-05-06T17:59:42.457Z,28.51
2018-05-06T18:02:14.739Z,28.59
2018-05-06T18:04:45.378Z,28.56
2018-05-06T18:07:16.888Z,28.74
2018-05-06T18:09:50.513Z,28.92
2018-05-06T18:12:27.130Z,28.97
2018-05-06T18:14:57.674Z,29.10
2018-05-06T18:17:29.312Z,29.26
2018-05-06T18:20:02.929Z,29.39
2018-05-06T18:22:34.531Z,29.51
2018-05-06T18:25:05.606Z,29.66
2018-05-06T18:27:40.145Z,29.82
2018-05-06T18:30:12.890Z,30.01
2018-05-06T18:32:45.946Z,30.03
2018-05-06T18:35:17.191Z,30.15
2018-05-06T18:37:53.485Z,30.22
2018-05-06T18:40:25.785Z,30.31
2018-05-06T18:42:57.568Z,30.37
2018-05-06T18:45:30.540Z,30.40
2018-05-06T18:48:03.011Z,30.49
2018-05-06T18:50:34.379Z,30.64
2018-05-06T18:53:10.025Z,30.67
2018-05-06T18:55:43.169Z,30.73
2018-05-06T18:58:19.927Z,30.97
2018-05-06T19:00:55.637Z,31.05
2018-05-06T19:03:28.616Z,31.10
2018-05-06T19:06:08.444Z,31.21
2018-05-06T19:08:44.918Z,31.32
2018-05-06T19:11:16.244Z,31.37
2018-05-06T19:13:48.801Z,31.43
2018-05-06T19:16:20.542Z,31.51
2018-05-06T19:18:55.317Z,31.42
2018-05-06T19:21:27.337Z,31.48
2018-05-06T19:23:59.384Z,31.56
2018-05-06T19:26:30.008Z,31.64
2018-05-06T19:29:00.939Z,31.73
2018-05-06T19:31:31.947Z,31.83
2018-05-06T19:34:40.975Z,31.86
2018-05-06T19:37:13.015Z,31.95
2018-05-06T19:39:43.958Z,31.94
2018-05-06T19:42:14.545Z,32.00
2018-05-06T19:44:44.982Z,32.05
2018-05-06T19:47:16.707Z,32.05
2018-05-06T19:49:47.260Z,32.00
2018-05-06T19:52:17.998Z,32.00
2018-05-06T19:54:48.366Z,31.90
2018-05-06T19:57:19.019Z,31.97
2018-05-06T19:59:50.613Z,32.04
2018-05-06T20:02:23.473Z,32.22
2018-05-06T20:04:54.878Z,32.19
2018-05-06T20:07:26.902Z,32.22
2018-05-06T20:10:03.019Z,32.12
2018-05-06T20:12:38.006Z,32.14
2018-05-06T20:15:14.224Z,32.38
2018-05-06T20:17:44.880Z,32.37
2018-05-06T20:20:17.362Z,32.60
2018-05-06T20:22:50.472Z,32.90
2018-05-06T20:25:21.685Z,33.05
2018-05-06T20:27:53.034Z,33.30
2018-05-06T20:30:27.380Z,33.69
2018-05-06T20:33:01.413Z,33.92
2018-05-06T20:35:33.524Z,34.14
2018-05-06T20:38:08.594Z,34.00
2018-05-06T20:40:41.485Z,34.31
2018-05-06T20:43:12.740Z,34.38
2018-05-06T20:45:44.742Z,34.29
2018-05-06T20:48:17.698Z,34.07
2018-05-06T20:50:52.295Z,34.16
2018-05-06T20:53:24.433Z,33.96
2018-05-06T20:55:56.319Z,33.94
2018-05-06T20:58:28.929Z,33.74
2018-05-06T21:01:03.225Z,34.01
2018-05-06T21:03:34.355Z,34.29
2018-05-06T21:06:05.169Z,34.16
2018-05-06T21:08:37.047Z,34.11
2018-05-06T21:11:08.174Z,34.29
2018-05-06T21:13:40.778Z,34.74
2018-05-06T21:16:12.508Z,34.80
2018-05-06T21:18:48.405Z,34.81
2018-05-06T21:21:20.222Z,34.85
2018-05-06T21:23:50.920Z,35.27
2018-05-06T21:26:21.514Z,35.07
2018-05-06T21:28:54.404Z,35.02
2018-05-06T21:31:25.844Z,34.84
2018-05-06T21:33:56.449Z,34.81
2018-05-06T21:36:29.997Z,34.89
2018-05-06T21:39:01.408Z,35.07
2018-05-06T21:41:32.537Z,35.29
2018-05-06T21:44:03.128Z,35.49
2018-05-06T21:46:35.700Z,35.59
2018-05-06T21:49:10.643Z,35.73
2018-05-06T21:51:42.474Z,35.56
2018-05-06T21:54:13.888Z,35.53
2018-05-06T21:56:44.128Z,35.97
2018-05-06T21:59:15.692Z,36.47
2018-05-06T22:01:46.287Z,36.72
2018-05-06T22:04:16.652Z,36.68
2018-05-06T22:06:47.531Z,36.89
2018-05-06T22:09:17.918Z,36.88
2018-05-06T22:11:48.199Z,36.74
2018-05-06T22:14:18.355Z,36.80
2018-05-06T22:16:48.856Z,36.62
2018-05-06T22:19:19.637Z,36.71
2018-05-06T22:21:50.096Z,36.76
2018-05-06T22:24:20.368Z,36.44
2018-05-06T22:26:51.114Z,36.58
2018-05-06T22:29:29.881Z,36.77
2018-05-06T22:32:02.176Z,36.71
2018-05-06T22:34:33.063Z,36.49
2018-05-06T22:37:04.637Z,36.75
2018-05-06T22:39:40.081Z,36.73
2018-05-06T22:42:10.596Z,37.32
2018-05-06T22:44:41.100Z,37.05
2018-05-06T22:47:13.345Z,36.99
2018-05-06T22:49:46.041Z,37.11
2018-05-06T22:52:19.457Z,37.19
2018-05-06T22:54:50.836Z,37.32
2018-05-06T22:57:21.289Z,37.26
2018-05-06T22:59:53.017Z,37.60
2018-05-06T23:02:23.767Z,37.70
2018-05-06T23:04:54.253Z,37.64
2018-05-06T23:07:24.766Z,37.62
2018-05-06T23:09:57.283Z,37.68
2018-05-06T23:12:27.732Z,37.57
2018-05-06T23:14:58.632Z,37.63
2018-05-06T23:17:29.442Z,37.77
2018-05-06T23:19:59.717Z,37.69
2018-05-06T23:22:30.059Z,37.74
2018-05-06T23:25:00.439Z,37.97
2018-05-06T23:27:30.841Z,38.05
2018-05-06T23:30:03.729Z,38.13
2018-05-06T23:32:34.735Z,38.09
2018-05-06T23:35:05.348Z,37.94
2018-05-06T23:37:35.636Z,37.91
2018-05-06T23:40:06.191Z,38.08
2018-05-06T23:42:36.363Z,37.92
2018-05-06T23:45:08.450Z,37.89
2018-05-06T23:47:39.312Z,38.13
2018-05-06T23:50:12.194Z,38.12
2018-05-06T23:52:42.831Z,38.31
2018-05-06T23:55:14.164Z,38.38
2018-05-06T23:57:44.894Z,38.37
